createdAt,value
2017-09-05T00:00:47.300Z,92.08
2017-09-05T00:01:47.245Z,92.06
2017-09-05T00:02:47.201Z,92.35
2017-09-05T00:03:47.254Z,91.92
2017-09-05T00:04:47.223Z,92.79
2017-09-05T00:05:47.296Z,92.87
2017-09-05T00:06:47.249Z,92.49
2017-09-05T00:07:48.063Z,92.30
2017-09-05T00:08:48.104Z,92.13
2017-09-05T00:09:47.664Z,92.45
2017-09-05T00:10:48.130Z,91.84
2017-09-05T00:11:48.093Z,92.08
2017-09-05T00:12:47.640Z,92.36
2017-09-05T00:13:47.233Z,91.22
2017-09-05T00:14:47.289Z,92.55
2017-09-05T00:15:47.355Z,93.16
2017-09-05T00:16:47.298Z,92.46
2017-09-05T00:17:47.250Z,91.68
2017-09-05T00:18:47.319Z,92.53
2017-09-05T00:19:47.266Z,91.60
2017-09-05T00:20:47.346Z,90.70
2017-09-05T00:21:47.295Z,90.75
2017-09-05T00:22:47.342Z,92.38
2017-09-05T00:23:47.305Z,92.40
2017-09-05T00:24:48.183Z,92.52
2017-09-05T00:25:48.241Z,93.28
2017-09-05T00:26:48.187Z,92.81
2017-09-05T00:27:48.150Z,91.45
2017-09-05T00:28:47.703Z,92.35
2017-09-05T00:29:47.746Z,91.50
2017-09-05T00:30:48.338Z,92.40
2017-09-05T00:31:47.311Z,92.72
2017-09-05T00:32:47.357Z,92.27
2017-09-05T00:33:47.311Z,93.14
2017-09-05T00:34:47.374Z,93.12
2017-09-05T00:35:47.432Z,93.15
2017-09-05T00:36:47.374Z,92.14
2017-09-05T00:37:47.349Z,92.49
2017-09-05T00:38:47.388Z,91.97
2017-09-05T00:39:47.331Z,92.95
2017-09-05T00:40:48.199Z,93.15
2017-09-05T00:41:48.173Z,94.73
2017-09-05T00:42:48.230Z,94.48
2017-09-05T00:43:48.205Z,93.53
2017-09-05T00:44:48.155Z,93.37
2017-09-05T00:45:48.208Z,92.22
2017-09-05T00:46:47.757Z,93.46
2017-09-05T00:47:47.832Z,93.36
2017-09-05T00:48:47.876Z,92.73
2017-09-05T00:49:47.424Z,93.91
2017-09-05T00:50:47.446Z,93.15
2017-09-05T00:51:47.405Z,91.76
2017-09-05T00:52:47.461Z,92.31
2017-09-05T00:53:47.515Z,92.16
2017-09-05T00:54:47.577Z,91.58
2017-09-05T00:55:47.425Z,92.52
2017-09-05T00:56:47.466Z,93.37
2017-09-05T00:57:48.307Z,93.21
2017-09-05T00:58:48.268Z,92.85
2017-09-05T00:59:48.222Z,91.76
2017-09-05T01:04:32.753Z,91.85
2017-09-05T01:04:34.074Z,91.23
2017-09-05T01:04:34.688Z,92.35
2017-09-05T01:04:35.495Z,92.20
2017-09-05T01:04:47.441Z,93.77
2017-09-05T01:09:04.545Z,93.92
2017-09-05T01:09:05.779Z,93.05
2017-09-05T01:09:06.595Z,93.22
2017-09-05T01:09:07.306Z,93.53
2017-09-05T01:11:54.563Z,92.77
2017-09-05T01:11:55.885Z,93.99
2017-09-05T01:11:56.588Z,92.80
2017-09-05T01:15:08.806Z,91.51
2017-09-05T01:15:09.924Z,93.32
2017-09-05T01:15:10.657Z,94.67
2017-09-05T01:17:54.537Z,94.58
2017-09-05T01:17:55.864Z,93.05
2017-09-05T01:17:56.575Z,92.45
2017-09-05T01:20:31.549Z,92.59
2017-09-05T01:20:32.360Z,93.01
2017-09-05T01:20:47.517Z,93.31
2017-09-05T01:23:54.439Z,91.96
2017-09-05T01:23:55.757Z,91.60
2017-09-05T01:23:56.462Z,92.71
2017-09-05T01:27:09.801Z,91.41
2017-09-05T01:27:10.627Z,92.05
2017-09-05T01:27:11.235Z,92.68
2017-09-05T01:29:44.589Z,93.71
2017-09-05T01:29:45.908Z,92.34
2017-09-05T01:29:47.524Z,92.48
2017-09-05T01:33:01.777Z,92.60
2017-09-05T01:33:03.009Z,92.02
2017-09-05T01:33:03.617Z,91.68
2017-09-05T01:35:45.588Z,92.04
2017-09-05T01:35:46.197Z,91.86
2017-09-05T01:35:47.519Z,91.75
2017-09-05T01:38:31.484Z,91.95
2017-09-05T01:38:32.398Z,91.11
2017-09-05T01:38:47.549Z,92.43
2017-09-05T01:41:45.576Z,92.93
2017-09-05T01:41:46.787Z,94.54
2017-09-05T01:41:47.721Z,93.62
2017-09-05T01:45:13.676Z,93.60
2017-09-05T01:45:14.896Z,93.64
2017-09-05T01:45:15.712Z,93.42
2017-09-05T01:47:50.585Z,93.07
2017-09-05T01:47:51.812Z,93.96
2017-09-05T01:47:52.625Z,92.60
2017-09-05T01:51:08.671Z,92.18
2017-09-05T01:51:09.885Z,93.46
2017-09-05T01:51:10.603Z,93.27
2017-09-05T01:53:54.561Z,93.49
2017-09-05T01:53:55.377Z,93.46
2017-09-05T01:53:56.198Z,94.12
2017-09-05T01:57:04.727Z,93.88
2017-09-05T01:57:05.646Z,94.52
2017-09-05T01:57:06.372Z,93.66
2017-09-05T01:59:54.873Z,93.20
2017-09-05T01:59:55.686Z,93.32
2017-09-05T01:59:56.494Z,93.81
2017-09-05T02:00:47.632Z,93.16
2017-09-05T02:01:48.416Z,93.55
2017-09-05T02:02:48.471Z,93.38
2017-09-05T02:03:48.423Z,92.73
2017-09-05T02:04:48.475Z,92.71
2017-09-05T02:05:48.540Z,93.16
2017-09-05T02:06:48.716Z,92.23
2017-09-05T02:07:48.461Z,93.43
2017-09-05T02:08:48.521Z,91.66
2017-09-05T02:09:48.073Z,94.31
2017-09-05T02:10:48.121Z,93.26
2017-09-05T02:11:47.665Z,92.46
2017-09-05T02:12:47.624Z,93.75
2017-09-05T02:13:47.675Z,92.80
2017-09-05T02:14:47.643Z,92.73
2017-09-05T02:15:47.694Z,93.45
2017-09-05T02:16:47.636Z,94.29
2017-09-05T02:17:47.693Z,94.25
2017-09-05T02:18:47.730Z,93.76
2017-09-05T02:19:47.695Z,94.05
2017-09-05T02:20:48.333Z,94.36
2017-09-05T02:21:47.983Z,94.09
2017-09-05T02:22:48.538Z,94.10
2017-09-05T02:23:48.486Z,93.84
2017-09-05T02:24:48.534Z,94.02
2017-09-05T02:25:48.096Z,93.06
2017-09-05T02:26:48.157Z,94.57
2017-09-05T02:27:47.700Z,94.40
2017-09-05T02:28:47.748Z,94.38
2017-09-05T02:29:47.712Z,94.38
2017-09-05T02:30:49.004Z,93.58
2017-09-05T02:31:47.754Z,94.46
2017-09-05T02:32:47.705Z,93.55
2017-09-05T02:33:47.756Z,94.37
2017-09-05T02:34:47.700Z,92.60
2017-09-05T02:35:47.735Z,92.01
2017-09-05T02:36:48.575Z,92.31
2017-09-05T02:37:48.523Z,93.61
2017-09-05T02:38:48.564Z,93.14
2017-09-05T02:39:48.608Z,93.00
2017-09-05T02:40:48.574Z,93.50
2017-09-05T02:41:48.616Z,92.35
2017-09-05T02:42:48.157Z,93.88
2017-09-05T02:43:48.207Z,94.36
2017-09-05T02:44:47.750Z,94.10
2017-09-05T02:45:48.909Z,93.23
2017-09-05T02:46:47.755Z,93.56
2017-09-05T02:47:47.815Z,93.73
2017-09-05T02:48:47.765Z,93.04
2017-09-05T02:49:47.816Z,92.92
2017-09-05T02:50:47.898Z,93.86
2017-09-05T02:51:47.848Z,93.78
2017-09-05T02:52:47.807Z,94.21
2017-09-05T02:53:48.678Z,95.31
2017-09-05T02:54:48.626Z,94.84
2017-09-05T02:55:48.884Z,94.77
2017-09-05T02:56:48.661Z,94.83
2017-09-05T02:57:48.619Z,95.32
2017-09-05T02:58:48.663Z,95.75
2017-09-05T02:59:48.210Z,95.68
2017-09-05T03:00:48.785Z,95.36
2017-09-05T03:01:47.821Z,94.99
2017-09-05T03:02:47.882Z,95.75
2017-09-05T03:03:47.823Z,95.33
2017-09-05T03:04:47.788Z,95.27
2017-09-05T03:05:47.832Z,94.23
2017-09-05T03:06:47.874Z,95.37
2017-09-05T03:07:47.823Z,96.61
2017-09-05T03:08:47.850Z,95.10
2017-09-05T03:09:48.700Z,93.85
2017-09-05T03:10:48.560Z,94.45
2017-09-05T03:11:48.724Z,93.32
2017-09-05T03:12:48.674Z,94.45
2017-09-05T03:13:48.732Z,94.75
2017-09-05T03:14:48.732Z,93.24
2017-09-05T03:15:48.276Z,94.26
2017-09-05T03:16:48.317Z,94.71
2017-09-05T03:17:47.892Z,94.27
2017-09-05T03:18:47.932Z,94.33
2017-09-05T03:19:47.878Z,94.33
2017-09-05T03:20:47.922Z,94.18
2017-09-05T03:21:47.852Z,94.65
2017-09-05T03:22:47.904Z,94.77
2017-09-05T03:23:47.947Z,94.65
2017-09-05T03:24:47.903Z,94.35
2017-09-05T03:25:47.942Z,95.19
2017-09-05T03:26:47.910Z,95.83
2017-09-05T03:27:48.856Z,94.53
2017-09-05T03:28:48.708Z,94.92
2017-09-05T03:29:48.750Z,94.60
2017-09-05T03:30:48.810Z,94.28
2017-09-05T03:31:48.855Z,94.57
2017-09-05T03:33:26.471Z,94.57
2017-09-05T03:35:02.573Z,94.81
2017-09-05T03:35:03.799Z,94.46
2017-09-05T03:35:04.503Z,94.21
2017-09-05T03:35:47.943Z,94.71
2017-09-05T03:36:49.103Z,95.09
2017-09-05T03:37:47.955Z,94.87
2017-09-05T03:38:47.988Z,94.71
2017-09-05T03:39:47.945Z,94.48
2017-09-05T03:40:48.006Z,94.45
2017-09-05T03:41:47.965Z,94.79
2017-09-05T03:42:48.807Z,93.93
2017-09-05T03:43:48.748Z,94.24
2017-09-05T03:44:48.791Z,94.55
2017-09-05T03:45:48.862Z,94.63
2017-09-05T03:46:48.809Z,94.29
2017-09-05T03:47:48.349Z,94.50
2017-09-05T03:48:48.409Z,94.77
2017-09-05T03:49:47.957Z,94.19
2017-09-05T03:50:49.044Z,94.80
2017-09-05T03:51:47.979Z,95.03
2017-09-05T03:52:48.034Z,94.54
2017-09-05T03:53:47.991Z,94.51
2017-09-05T03:54:48.033Z,95.19
2017-09-05T03:55:48.082Z,95.06
2017-09-05T03:56:48.014Z,94.87
2017-09-05T03:57:48.053Z,95.26
2017-09-05T03:58:47.989Z,95.44
2017-09-05T03:59:48.831Z,95.54
2017-09-05T04:00:48.875Z,95.30
2017-09-05T04:01:48.861Z,94.66
2017-09-05T04:02:48.803Z,95.63
2017-09-05T04:03:48.838Z,94.97
2017-09-05T04:04:48.883Z,94.23
2017-09-05T04:05:48.516Z,95.06
2017-09-05T04:06:48.070Z,96.37
2017-09-05T04:07:48.108Z,94.47
2017-09-05T04:08:48.056Z,94.37
2017-09-05T04:09:48.003Z,94.82
2017-09-05T04:10:48.048Z,95.73
2017-09-05T04:11:48.088Z,95.50
2017-09-05T04:12:48.037Z,95.30
2017-09-05T04:13:48.097Z,94.24
2017-09-05T04:14:48.043Z,95.21
2017-09-05T04:15:48.084Z,95.52
2017-09-05T04:16:48.928Z,95.91
2017-09-05T04:17:48.868Z,94.37
2017-09-05T04:18:48.919Z,95.15
2017-09-05T04:19:48.975Z,94.84
2017-09-05T04:20:48.933Z,94.33
2017-09-05T04:21:48.984Z,94.91
2017-09-05T04:22:48.518Z,96.02
2017-09-05T04:23:48.067Z,94.64
2017-09-05T04:24:48.108Z,94.33
2017-09-05T04:25:48.153Z,94.91
2017-09-05T04:26:48.101Z,94.83
2017-09-05T04:27:48.159Z,94.82
2017-09-05T04:28:48.125Z,95.13
2017-09-05T04:29:48.110Z,94.22
2017-09-05T04:30:48.141Z,94.52
2017-09-05T04:31:48.092Z,94.65
2017-09-05T04:32:49.038Z,94.40
2017-09-05T04:33:48.981Z,94.22
2017-09-05T04:34:49.023Z,93.79
2017-09-05T04:35:49.005Z,93.70
2017-09-05T04:36:49.055Z,93.67
2017-09-05T04:37:48.996Z,93.63
2017-09-05T04:38:48.551Z,93.63
2017-09-05T04:39:48.599Z,93.88
2017-09-05T04:40:48.154Z,93.74
2017-09-05T04:41:48.184Z,93.95
2017-09-05T04:42:48.140Z,94.34
2017-09-05T04:43:48.124Z,94.70
2017-09-05T04:44:48.177Z,94.54
2017-09-05T04:45:48.203Z,93.93
2017-09-05T04:46:48.167Z,95.47
2017-09-05T04:47:48.157Z,95.09
2017-09-05T04:48:48.982Z,94.97
2017-09-05T04:49:49.061Z,94.50
2017-09-05T04:50:49.059Z,94.41
2017-09-05T04:51:49.046Z,94.88
2017-09-05T04:52:49.026Z,94.96
2017-09-05T04:53:48.993Z,95.10
2017-09-05T04:54:48.584Z,94.55
2017-09-05T04:55:48.621Z,94.99
2017-09-05T04:56:48.119Z,94.45
2017-09-05T04:57:48.231Z,95.05
2017-09-05T04:58:48.216Z,94.61
2017-09-05T04:59:48.191Z,94.97
2017-09-05T05:00:48.208Z,95.38
2017-09-05T05:01:48.187Z,94.99
2017-09-05T05:02:48.294Z,93.81
2017-09-05T05:03:48.225Z,93.93
2017-09-05T05:04:48.195Z,93.83
2017-09-05T05:05:49.091Z,93.60
2017-09-05T05:06:49.055Z,93.01
2017-09-05T05:07:49.101Z,92.64
2017-09-05T05:08:49.040Z,93.20
2017-09-05T05:09:49.329Z,93.54
2017-09-05T05:10:49.510Z,91.98
2017-09-05T05:11:48.651Z,93.88
2017-09-05T05:12:48.772Z,93.30
2017-09-05T05:13:48.256Z,93.04
2017-09-05T05:14:48.304Z,92.73
2017-09-05T05:15:54.206Z,93.63
2017-09-05T05:16:48.304Z,92.77
2017-09-05T05:17:49.475Z,93.53
2017-09-05T05:18:48.310Z,92.12
2017-09-05T05:19:48.341Z,91.16
2017-09-05T05:20:48.269Z,91.79
2017-09-05T05:21:49.167Z,92.29
2017-09-05T05:22:49.129Z,91.08
2017-09-05T05:23:49.570Z,91.12
2017-09-05T05:24:49.115Z,91.08
2017-09-05T05:25:49.135Z,91.38
2017-09-05T05:26:49.125Z,91.25
2017-09-05T05:27:48.703Z,91.95
2017-09-05T05:28:48.705Z,90.70
2017-09-05T05:29:48.302Z,90.76
2017-09-05T05:30:48.279Z,89.84
2017-09-05T05:31:48.386Z,91.19
2017-09-05T05:32:48.351Z,90.43
2017-09-05T05:33:48.363Z,89.41
2017-09-05T05:34:48.324Z,89.93
2017-09-05T05:35:48.333Z,90.62
2017-09-05T05:36:48.358Z,89.97
2017-09-05T05:37:48.376Z,90.71
2017-09-05T05:38:48.372Z,90.13
2017-09-05T05:39:49.163Z,90.10
2017-09-05T05:40:49.204Z,89.94
2017-09-05T05:41:49.155Z,89.17
2017-09-05T05:42:49.216Z,89.44
2017-09-05T05:43:49.179Z,89.56
2017-09-05T05:44:49.215Z,89.97
2017-09-05T05:45:48.808Z,90.13
2017-09-05T05:46:48.372Z,90.00
2017-09-05T05:47:48.334Z,89.48
2017-09-05T05:48:48.415Z,89.29
2017-09-05T05:49:48.328Z,88.87
2017-09-05T05:50:48.314Z,88.12
2017-09-05T05:51:48.466Z,87.84
2017-09-05T05:52:48.365Z,87.71
2017-09-05T05:53:48.355Z,87.57
2017-09-05T05:54:48.353Z,88.54
2017-09-05T05:55:49.260Z,88.60
2017-09-05T05:56:54.266Z,88.20
2017-09-05T05:57:48.354Z,87.82
2017-09-05T05:58:49.249Z,87.82
2017-09-05T05:59:49.264Z,87.50
2017-09-05T06:00:49.258Z,86.83
2017-09-05T06:01:48.837Z,86.93
2017-09-05T06:02:48.863Z,87.80
2017-09-05T06:03:48.380Z,86.15
2017-09-05T06:04:48.432Z,86.97
2017-09-05T06:05:48.413Z,87.65
2017-09-05T15:44:56.019Z,73.29
2017-09-05T15:45:58.424Z,72.86
2017-09-05T15:46:50.741Z,71.66
2017-09-05T15:47:52.116Z,71.37
2017-09-05T15:48:53.522Z,72.07
2017-09-05T15:49:50.919Z,69.93
2017-09-05T15:50:50.771Z,69.59
2017-09-05T15:51:52.216Z,70.42
2017-09-05T15:52:53.762Z,70.76
2017-09-05T15:53:51.161Z,70.91
2017-09-05T15:54:50.742Z,70.12
2017-09-05T15:55:50.939Z,70.90
2017-09-05T15:56:52.032Z,70.38
2017-09-05T15:57:52.921Z,68.83
2017-09-05T15:59:11.075Z,69.37
2017-09-05T15:59:50.875Z,69.63
2017-09-05T17:07:58.923Z,79.58
2017-09-05T17:08:50.308Z,79.90
2017-09-05T17:09:52.109Z,78.99
2017-09-05T17:10:50.739Z,78.85
2017-09-05T17:11:50.725Z,78.95
2017-09-05T17:12:50.813Z,79.71
2017-09-05T17:13:50.709Z,79.56
2017-09-05T17:14:50.787Z,80.57
2017-09-05T17:15:50.838Z,80.41
2017-09-05T17:16:50.977Z,79.73
2017-09-05T17:17:50.813Z,79.87
2017-09-05T17:18:50.750Z,80.11
2017-09-05T17:19:50.833Z,80.14
2017-09-05T17:20:50.778Z,79.97
2017-09-05T17:21:52.068Z,79.13
2017-09-05T17:22:52.086Z,80.21
2017-09-05T17:23:52.141Z,79.92
2017-09-05T17:24:51.548Z,79.44
2017-09-05T17:25:50.745Z,79.28
2017-09-05T17:26:50.809Z,79.88
2017-09-05T17:27:52.297Z,79.89
2017-09-05T17:28:50.977Z,80.32
2017-09-05T17:29:50.922Z,80.53
2017-09-05T17:30:50.843Z,79.86
2017-09-05T17:31:50.789Z,80.62
2017-09-05T17:32:50.859Z,80.81
2017-09-05T17:33:50.817Z,80.97
2017-09-05T17:34:50.904Z,80.69
2017-09-05T17:35:55.497Z,80.94
2017-09-05T17:36:50.852Z,80.46
2017-09-05T17:37:52.202Z,80.87
2017-09-05T17:38:51.698Z,80.34
2017-09-05T17:39:57.013Z,80.36
2017-09-05T17:40:50.824Z,79.79
2017-09-05T17:41:52.298Z,80.60
2017-09-05T17:42:51.455Z,80.39
2017-09-05T17:43:50.827Z,79.30
2017-09-05T17:44:50.915Z,80.06
2017-09-05T17:45:51.867Z,79.17
2017-09-05T17:46:51.731Z,78.55
2017-09-05T17:47:50.870Z,78.68
2017-09-05T17:48:50.918Z,78.95
2017-09-05T17:49:50.866Z,79.91
2017-09-05T17:50:50.946Z,79.89
2017-09-05T17:51:50.886Z,80.29
2017-09-05T17:52:50.874Z,80.43
2017-09-05T17:53:50.940Z,80.92
2017-09-05T17:54:50.888Z,80.81
2017-09-05T17:55:50.948Z,81.35
2017-09-05T17:56:50.907Z,81.93
2017-09-05T17:57:52.115Z,81.74
2017-09-05T17:58:51.915Z,82.18
2017-09-05T17:59:51.500Z,82.54
2017-09-05T18:00:50.873Z,82.35
2017-09-05T18:01:50.888Z,82.40
2017-09-05T18:02:50.932Z,82.74
2017-09-05T18:03:59.723Z,82.88
2017-09-05T18:04:50.920Z,83.28
2017-09-05T18:05:51.664Z,83.27
2017-09-05T18:06:51.595Z,83.33
2017-09-05T18:07:51.551Z,83.37
2017-09-05T18:08:51.665Z,83.02
2017-09-05T18:09:51.635Z,83.78
2017-09-05T18:10:51.510Z,84.26
2017-09-05T18:11:51.570Z,84.43
2017-09-05T18:12:51.623Z,84.44
2017-09-05T18:13:52.331Z,84.41
2017-09-05T18:14:51.789Z,84.68
2017-09-05T18:15:52.253Z,84.67
2017-09-05T18:16:52.526Z,84.94
2017-09-05T18:17:51.594Z,84.86
2017-09-05T18:18:50.924Z,85.20
2017-09-05T18:19:50.997Z,85.26
2017-09-05T18:20:50.968Z,85.26
2017-09-05T18:21:51.021Z,85.35
2017-09-05T18:22:50.972Z,85.15
2017-09-05T18:23:51.024Z,85.51
2017-09-05T18:24:50.973Z,85.63
2017-09-05T18:25:51.026Z,85.88
2017-09-05T18:26:51.088Z,86.03
2017-09-05T18:27:51.005Z,86.09
2017-09-05T18:28:50.984Z,85.93
2017-09-05T18:29:51.039Z,85.91
2017-09-05T18:30:51.111Z,86.14
2017-09-05T18:31:50.994Z,86.21
2017-09-05T18:32:51.158Z,86.25
2017-09-05T18:33:51.016Z,85.94
2017-09-05T18:34:52.313Z,86.54
2017-09-05T18:35:52.003Z,86.27
2017-09-05T18:36:51.852Z,86.20
2017-09-05T18:37:51.021Z,86.17
2017-09-05T18:38:51.077Z,86.02
2017-09-05T18:39:51.101Z,86.43
2017-09-05T18:40:51.064Z,86.27
2017-09-05T18:41:51.027Z,86.50
2017-09-05T18:42:51.089Z,86.23
2017-09-05T18:43:51.090Z,86.23
2017-09-05T18:44:51.088Z,86.63
2017-09-05T18:45:51.092Z,86.55
2017-09-05T18:46:51.084Z,86.54
2017-09-05T18:47:51.097Z,86.69
2017-09-05T18:48:51.085Z,86.62
2017-09-05T18:49:51.229Z,86.73
2017-09-05T18:50:51.276Z,86.63
2017-09-05T18:51:51.152Z,86.88
2017-09-05T18:52:51.118Z,87.09
2017-09-05T18:53:51.197Z,86.85
2017-09-05T18:54:51.068Z,87.00
2017-09-05T18:55:52.742Z,86.06
2017-09-05T18:56:51.087Z,87.00
2017-09-05T18:57:52.099Z,87.29
2017-09-05T18:58:51.067Z,87.22
2017-09-05T18:59:51.128Z,87.19
2017-09-05T19:00:52.212Z,87.44
2017-09-05T19:01:51.385Z,87.52
2017-09-05T19:02:53.094Z,87.20
2017-09-05T19:03:51.159Z,87.49
2017-09-05T19:04:51.124Z,87.11
2017-09-05T19:05:51.211Z,87.32
2017-09-05T19:06:51.166Z,87.56
2017-09-05T19:07:51.441Z,87.32
2017-09-05T19:08:51.103Z,87.57
2017-09-05T19:09:52.518Z,87.55
2017-09-05T19:10:52.523Z,88.00
2017-09-05T19:11:52.475Z,88.14
2017-09-05T19:12:51.111Z,88.27
2017-09-05T19:13:51.899Z,88.34
2017-09-05T19:14:51.969Z,88.56
2017-09-05T19:15:51.259Z,88.43
2017-09-05T19:16:51.128Z,88.48
2017-09-05T19:17:51.237Z,88.85
2017-09-05T19:18:51.249Z,89.17
2017-09-05T19:19:51.214Z,89.15
2017-09-05T19:20:51.187Z,88.98
2017-09-05T19:21:51.222Z,89.12
2017-09-05T19:22:51.197Z,89.35
2017-09-05T19:23:51.180Z,89.27
2017-09-05T19:24:51.186Z,89.16
2017-09-05T19:25:51.277Z,89.15
2017-09-05T19:26:51.152Z,89.55
2017-09-05T19:27:51.158Z,89.12
2017-09-05T19:28:52.588Z,89.10
2017-09-05T19:29:51.143Z,89.50
2017-09-05T19:30:52.250Z,89.52
2017-09-05T19:31:51.202Z,89.17
2017-09-05T19:32:52.570Z,89.34
2017-09-05T19:33:51.319Z,89.25
2017-09-05T19:34:51.312Z,89.57
2017-09-05T19:35:51.207Z,89.37
2017-09-05T19:36:51.260Z,89.13
2017-09-05T19:37:51.225Z,89.33
2017-09-05T19:38:51.325Z,89.35
2017-09-05T19:39:51.208Z,89.54
2017-09-05T19:40:51.304Z,89.65
2017-09-05T19:41:51.265Z,89.54
2017-09-05T19:42:51.241Z,89.62
2017-09-05T19:43:51.237Z,89.70
2017-09-05T19:44:51.897Z,89.98
2017-09-05T19:45:51.286Z,89.89
2017-09-05T19:46:52.648Z,90.00
2017-09-05T19:47:52.013Z,89.86
2017-09-05T19:48:51.299Z,90.01
2017-09-05T19:49:51.281Z,89.93
2017-09-05T19:50:51.208Z,90.20
2017-09-05T19:51:51.196Z,90.23
2017-09-05T19:52:51.283Z,90.23
2017-09-05T19:53:51.289Z,90.11
2017-09-05T19:54:51.318Z,90.30
2017-09-05T19:55:51.314Z,90.19
2017-09-05T19:56:51.366Z,90.15
2017-09-05T19:57:51.350Z,90.40
2017-09-05T19:58:51.316Z,90.42
2017-09-05T19:59:51.194Z,90.33
2017-09-05T20:00:51.302Z,90.25
2017-09-05T20:01:52.557Z,90.22
2017-09-05T20:02:56.113Z,90.20
2017-09-05T20:04:01.176Z,90.37
2017-09-05T20:05:01.486Z,90.43
2017-09-05T20:05:51.880Z,90.40
2017-09-05T20:06:51.323Z,90.50
2017-09-05T20:07:51.423Z,90.30
2017-09-05T20:08:51.484Z,90.57
2017-09-05T20:09:51.343Z,90.65
2017-09-05T20:10:51.293Z,90.51
2017-09-05T20:11:51.251Z,90.66
2017-09-05T20:12:51.623Z,90.69
2017-09-05T20:13:51.305Z,90.97
2017-09-05T20:14:51.384Z,91.01
2017-09-05T20:15:51.305Z,90.63
2017-09-05T20:16:51.263Z,90.85
2017-09-05T20:17:51.331Z,90.73
2017-09-05T20:18:51.508Z,90.89
2017-09-05T20:19:51.404Z,90.73
2017-09-05T20:20:52.631Z,90.89
2017-09-05T20:21:51.939Z,91.15
2017-09-05T20:22:51.318Z,91.02
2017-09-05T20:23:51.418Z,91.19
2017-09-05T20:24:51.409Z,90.87
2017-09-05T20:25:51.413Z,91.21
2017-09-05T20:26:51.414Z,91.74
2017-09-05T20:27:51.527Z,91.54
2017-09-05T20:28:54.076Z,91.63
2017-09-05T20:29:51.547Z,91.61
2017-09-05T20:30:52.099Z,91.78
2017-09-05T20:31:52.059Z,91.63
2017-09-05T20:32:51.920Z,91.49
2017-09-05T20:33:53.691Z,91.69
2017-09-05T20:34:51.324Z,91.73
2017-09-05T20:35:51.384Z,91.81
2017-09-05T20:36:52.632Z,91.73
2017-09-05T20:37:51.972Z,92.08
2017-09-05T20:38:52.128Z,91.88
2017-09-05T20:39:52.182Z,91.84
2017-09-05T20:40:51.473Z,91.83
2017-09-05T20:41:51.437Z,91.98
2017-09-05T20:42:51.500Z,92.03
2017-09-05T20:43:51.453Z,91.81
2017-09-05T20:44:51.501Z,91.83
2017-09-05T20:45:51.446Z,91.76
2017-09-05T20:46:51.495Z,91.67
2017-09-05T20:47:51.340Z,91.36
2017-09-05T20:48:51.506Z,91.42
2017-09-05T20:49:51.487Z,91.58
2017-09-05T20:50:51.518Z,91.89
2017-09-05T20:51:51.509Z,91.96
2017-09-05T20:52:51.458Z,91.97
2017-09-05T20:53:52.409Z,91.78
2017-09-05T20:54:52.769Z,91.63
2017-09-05T20:55:52.228Z,91.78
2017-09-05T20:56:51.481Z,91.63
2017-09-05T20:57:51.535Z,91.80
2017-09-05T20:58:51.492Z,91.90
2017-09-05T20:59:51.530Z,91.83
2017-09-05T21:00:51.506Z,91.37
2017-09-05T21:01:51.475Z,91.51
2017-09-05T21:02:51.531Z,91.61
2017-09-05T21:03:51.470Z,91.95
2017-09-05T21:04:51.542Z,91.57
2017-09-05T21:05:51.505Z,91.21
2017-09-05T21:06:51.573Z,91.16
2017-09-05T21:07:51.539Z,91.35
2017-09-05T21:08:51.510Z,91.46
2017-09-05T21:09:51.559Z,91.46
2017-09-05T21:10:52.764Z,91.49
2017-09-05T21:11:52.774Z,91.52
2017-09-05T21:12:52.119Z,91.70
2017-09-05T21:13:52.369Z,91.67
2017-09-05T21:14:51.503Z,92.11
2017-09-05T21:15:51.553Z,92.10
2017-09-05T21:16:51.596Z,92.01
2017-09-05T21:17:51.548Z,92.31
2017-09-05T21:18:51.598Z,93.81
2017-09-05T21:19:51.545Z,93.07
2017-09-05T21:20:51.606Z,93.29
2017-09-05T21:21:51.461Z,93.35
2017-09-05T21:22:51.617Z,93.28
2017-09-05T21:23:51.571Z,93.24
2017-09-05T21:24:51.625Z,93.32
2017-09-05T21:25:51.683Z,93.24
2017-09-05T21:26:51.623Z,93.16
2017-09-05T21:27:51.569Z,93.07
2017-09-05T21:28:51.641Z,93.09
2017-09-05T21:29:51.679Z,92.81
2017-09-05T21:30:52.861Z,92.82
2017-09-05T21:31:51.604Z,93.92
2017-09-05T21:32:51.651Z,92.88
2017-09-05T21:33:51.609Z,93.05
2017-09-05T21:34:51.664Z,92.96
2017-09-05T21:35:54.133Z,93.12
2017-09-05T21:36:51.662Z,93.06
2017-09-05T21:37:52.360Z,92.76
2017-09-05T21:38:52.291Z,92.73
2017-09-05T21:39:52.255Z,91.41
2017-09-05T21:40:52.204Z,92.46
2017-09-05T21:41:52.257Z,92.17
2017-09-05T21:42:52.909Z,92.14
2017-09-05T21:43:52.371Z,92.08
2017-09-05T21:44:52.843Z,91.86
2017-09-05T21:45:53.003Z,91.85
2017-09-05T21:46:52.246Z,91.84
2017-09-05T21:47:52.293Z,91.68
2017-09-05T21:48:51.639Z,91.88
2017-09-05T21:49:53.092Z,92.07
2017-09-05T21:50:51.761Z,92.03
2017-09-05T21:51:51.689Z,91.97
2017-09-05T21:52:51.637Z,91.99
2017-09-05T21:53:51.689Z,91.95
2017-09-05T21:54:51.644Z,91.89
2017-09-05T21:55:51.708Z,91.90
2017-09-05T21:56:51.749Z,91.83
2017-09-05T21:57:51.702Z,91.88
2017-09-05T21:58:51.663Z,92.18
2017-09-05T21:59:51.694Z,92.49
2017-09-05T22:00:51.763Z,92.78
2017-09-05T22:01:51.713Z,92.73
2017-09-05T22:02:51.671Z,92.57
2017-09-05T22:03:52.921Z,92.52
2017-09-05T22:04:52.381Z,92.69
2017-09-05T22:05:51.699Z,92.57
2017-09-05T22:06:51.674Z,92.57
2017-09-05T22:07:51.725Z,92.26
2017-09-05T22:08:51.786Z,92.21
2017-09-05T22:09:51.742Z,92.25
2017-09-05T22:10:51.709Z,92.12
2017-09-05T22:11:51.778Z,92.02
2017-09-05T22:12:51.734Z,92.44
2017-09-05T22:13:51.796Z,92.16
2017-09-05T22:14:51.759Z,92.09
2017-09-05T22:15:51.823Z,91.96
2017-09-05T22:16:51.716Z,91.88
2017-09-05T22:17:51.998Z,92.32
2017-09-05T22:18:51.812Z,92.17
2017-09-05T22:19:51.818Z,92.23
2017-09-05T22:20:53.088Z,92.30
2017-09-05T22:21:52.337Z,92.58
2017-09-05T22:22:52.397Z,92.24
2017-09-05T22:23:51.776Z,92.28
2017-09-05T22:24:51.735Z,92.14
2017-09-05T22:25:52.557Z,92.18
2017-09-05T22:26:51.812Z,92.04
2017-09-05T22:27:51.758Z,91.95
2017-09-05T22:28:51.808Z,92.15
2017-09-05T22:29:51.981Z,92.23
2017-09-05T22:30:51.833Z,92.03
2017-09-05T22:31:51.904Z,92.13
2017-09-05T22:32:51.951Z,92.28
2017-09-05T22:33:51.811Z,92.25
2017-09-05T22:34:51.838Z,92.39
2017-09-05T22:35:51.787Z,92.33
2017-09-05T22:36:52.666Z,92.29
2017-09-05T22:37:53.122Z,92.56
2017-09-05T22:38:53.284Z,92.40
2017-09-05T22:39:52.476Z,92.22
2017-09-05T22:40:51.792Z,92.31
2017-09-05T22:41:51.869Z,92.30
2017-09-05T22:42:51.820Z,92.30
2017-09-05T22:43:51.882Z,92.36
2017-09-05T22:44:51.876Z,92.27
2017-09-05T22:45:51.877Z,92.26
2017-09-05T22:46:52.459Z,92.35
2017-09-05T22:47:52.625Z,92.51
2017-09-05T22:48:52.494Z,92.63
2017-09-05T22:49:52.898Z,92.65
2017-09-05T22:50:52.476Z,92.96
2017-09-05T22:51:53.205Z,92.82
2017-09-05T22:52:53.085Z,92.77
2017-09-05T22:53:53.246Z,92.81
2017-09-05T22:54:53.109Z,92.78
2017-09-05T22:55:52.465Z,91.53
2017-09-05T22:56:52.523Z,92.68
2017-09-05T22:57:52.532Z,92.64
2017-09-05T22:58:52.615Z,92.53
2017-09-05T22:59:51.965Z,92.29
2017-09-05T23:00:51.956Z,92.61
2017-09-05T23:01:52.001Z,92.47
2017-09-05T23:02:51.959Z,92.69
2017-09-05T23:03:51.924Z,92.10
2017-09-05T23:04:51.916Z,92.26
2017-09-05T23:05:51.983Z,92.24
2017-09-05T23:06:52.036Z,92.12
2017-09-05T23:07:52.001Z,92.32
2017-09-05T23:08:51.880Z,92.07
2017-09-05T23:09:52.049Z,92.01
2017-09-05T23:10:51.917Z,92.21
2017-09-05T23:11:53.142Z,92.01
2017-09-05T23:12:53.422Z,92.04
2017-09-05T23:13:52.666Z,91.87
2017-09-05T23:14:52.624Z,91.63
2017-09-05T23:15:51.986Z,91.85
2017-09-05T23:16:52.045Z,91.71
2017-09-05T23:17:57.499Z,91.55
2017-09-05T23:19:01.875Z,92.12
2017-09-05T23:19:51.927Z,91.60
2017-09-05T23:20:52.953Z,91.47
2017-09-05T23:21:52.652Z,91.61
2017-09-05T23:22:52.621Z,91.76
2017-09-05T23:23:52.689Z,91.66
2017-09-05T23:24:52.645Z,91.11
2017-09-05T23:25:53.203Z,91.48
2017-09-05T23:26:53.355Z,91.57
2017-09-05T23:27:53.283Z,92.70
2017-09-05T23:28:52.822Z,90.88
2017-09-05T23:29:53.369Z,91.58
2017-09-05T23:30:53.254Z,91.62
2017-09-05T23:31:53.317Z,91.80
2017-09-05T23:32:52.666Z,92.01
2017-09-05T23:33:52.009Z,91.85
2017-09-05T23:34:52.076Z,91.67
2017-09-05T23:35:52.068Z,91.51
2017-09-05T23:36:52.021Z,91.71